createdAt,value
2023-06-24T00:00:39.534Z,18.52
2023-06-24T00:03:06.207Z,12.30
2023-06-24T00:05:32.656Z,21.65
2023-06-24T00:07:59.089Z,23.15
2023-06-24T00:10:25.554Z,25.05
2023-06-24T00:12:53.328Z,28.83
2023-06-24T00:15:19.760Z,15.55
2023-06-24T00:17:46.215Z,23.27
2023-06-24T00:20:12.784Z,18.63
2023-06-24T00:22:39.418Z,25.98
2023-06-24T00:25:06.344Z,21.52
2023-06-24T00:27:32.820Z,17.30
2023-06-24T00:30:00.609Z,31.67
2023-06-24T00:32:27.084Z,11.70
2023-06-24T00:34:53.547Z,20.55
2023-06-24T00:37:19.977Z,17.70
2023-06-24T00:39:46.426Z,15.20
2023-06-24T00:42:12.878Z,14.30
2023-06-24T00:44:39.297Z,25.65
2023-06-24T00:47:07.925Z,28.48
2023-06-24T00:49:34.392Z,16.50
2023-06-24T00:52:00.828Z,18.88
2023-06-24T00:54:27.290Z,18.67
2023-06-24T00:56:53.756Z,29.85
2023-06-24T00:59:20.657Z,23.50
2023-06-24T01:01:47.422Z,20.85
2023-06-24T01:04:15.338Z,21.05
2023-06-24T01:06:42.091Z,18.55
2023-06-24T01:09:08.526Z,19.33
2023-06-24T01:11:35.187Z,16.70
2023-06-24T01:14:01.626Z,24.08
2023-06-24T01:16:33.648Z,15.18
2023-06-24T01:19:01.746Z,15.82
2023-06-24T01:21:34.713Z,18.33
2023-06-24T01:24:18.740Z,18.27
2023-06-24T01:27:03.995Z,15.65
2023-06-24T01:29:37.196Z,24.50
2023-06-24T01:32:07.764Z,15.68
2023-06-24T01:34:37.553Z,17.20
2023-06-24T01:37:07.375Z,19.15
2023-06-24T01:39:37.027Z,16.55
2023-06-24T01:42:06.443Z,29.08
2023-06-24T01:44:34.243Z,16.10
2023-06-24T01:47:01.037Z,15.52
2023-06-24T01:49:31.799Z,17.45
2023-06-24T01:51:59.707Z,18.73
2023-06-24T01:54:27.222Z,18.48
2023-06-24T01:56:55.532Z,20.05
2023-06-24T01:59:22.484Z,20.85
2023-06-24T02:01:49.656Z,18.58
2023-06-24T02:04:17.086Z,20.67
2023-06-24T02:06:45.248Z,24.80
2023-06-24T02:09:12.269Z,19.92
2023-06-24T02:11:39.389Z,18.63
2023-06-24T02:14:06.713Z,22.05
2023-06-24T02:16:33.734Z,20.52
2023-06-24T02:19:01.553Z,14.60
2023-06-24T02:21:28.064Z,14.55
2023-06-24T02:23:56.451Z,21.15
2023-06-24T02:26:23.209Z,26.08
2023-06-24T02:28:50.498Z,20.17
2023-06-24T02:31:17.313Z,21.13
2023-06-24T02:33:43.867Z,15.82
2023-06-24T02:36:10.809Z,15.60
2023-06-24T02:38:37.287Z,20.85
2023-06-24T02:41:05.077Z,18.98
2023-06-24T02:43:31.497Z,16.20
2023-06-24T02:45:58.995Z,22.58
2023-06-24T02:48:25.611Z,14.52
2023-06-24T02:50:52.464Z,20.77
2023-06-24T02:53:18.945Z,19.27
2023-06-24T02:55:46.540Z,17.42
2023-06-24T02:58:14.541Z,18.63
2023-06-24T03:00:41.899Z,20.35
2023-06-24T03:03:08.878Z,21.60
2023-06-24T03:05:36.606Z,17.20
2023-06-24T03:08:03.485Z,21.83
2023-06-24T03:10:30.156Z,19.77
2023-06-24T03:12:56.563Z,25.25
2023-06-24T03:15:25.913Z,27.52
2023-06-24T03:17:54.529Z,17.83
2023-06-24T03:20:21.065Z,16.48
2023-06-24T03:22:47.509Z,16.95
2023-06-24T03:25:14.047Z,13.77
2023-06-24T03:27:40.521Z,26.02
2023-06-24T03:30:07.619Z,16.65
2023-06-24T03:32:35.480Z,17.20
2023-06-24T03:35:01.991Z,19.92
2023-06-24T03:37:28.425Z,12.35
2023-06-24T03:39:54.869Z,20.92
2023-06-24T03:42:21.339Z,14.82
2023-06-24T03:44:47.748Z,21.30
2023-06-24T03:47:14.184Z,20.05
2023-06-24T03:49:42.058Z,23.58
2023-06-24T03:52:08.506Z,19.95
2023-06-24T03:54:34.956Z,28.75
2023-06-24T03:57:01.398Z,24.65
2023-06-24T03:59:27.846Z,19.50
2023-06-24T04:01:54.426Z,21.85
2023-06-24T04:04:20.856Z,25.95
2023-06-24T04:06:48.721Z,16.63
2023-06-24T04:09:15.328Z,19.60
2023-06-24T04:11:41.767Z,18.33
2023-06-24T04:14:08.207Z,22.17
2023-06-24T04:16:34.787Z,28.20
2023-06-24T04:19:01.214Z,20.55
2023-06-24T04:21:27.626Z,17.83
2023-06-24T04:23:55.483Z,21.25
2023-06-24T04:26:21.909Z,19.20
2023-06-24T04:28:48.391Z,17.65
2023-06-24T04:31:14.965Z,21.17
2023-06-24T04:33:41.443Z,23.40
2023-06-24T04:36:07.903Z,22.00
2023-06-24T04:38:34.344Z,16.20
2023-06-24T04:41:02.134Z,25.95
2023-06-24T04:43:28.618Z,20.23
2023-06-24T04:45:55.154Z,19.58
2023-06-24T04:48:21.621Z,22.23
2023-06-24T04:50:48.061Z,17.88
2023-06-24T04:53:14.605Z,23.27
2023-06-24T04:55:41.048Z,19.65
2023-06-24T04:58:08.878Z,19.20
2023-06-24T05:00:35.369Z,18.58
2023-06-24T05:03:01.937Z,18.13
2023-06-24T05:05:28.714Z,21.92
2023-06-24T05:07:55.426Z,28.80
2023-06-24T05:10:22.042Z,19.85
2023-06-24T05:12:48.524Z,21.70
2023-06-24T05:15:16.556Z,20.23
2023-06-24T05:17:43.379Z,17.65
2023-06-24T05:20:10.238Z,20.50
2023-06-24T05:22:36.667Z,20.08
2023-06-24T05:25:03.138Z,21.85
2023-06-24T05:27:29.605Z,16.13
2023-06-24T05:29:56.091Z,24.55
2023-06-24T05:32:23.925Z,21.92
2023-06-24T05:34:50.393Z,20.58
2023-06-24T05:37:16.810Z,27.95
2023-06-24T05:39:43.259Z,24.88
2023-06-24T05:42:09.726Z,28.70
2023-06-24T05:44:36.175Z,19.65
2023-06-24T05:47:02.694Z,21.73
2023-06-24T05:49:30.455Z,27.15
2023-06-24T05:51:57.248Z,23.50
2023-06-24T05:54:23.718Z,29.30
2023-06-24T05:56:50.133Z,19.45
2023-06-24T05:59:16.607Z,21.40
2023-06-24T06:01:43.059Z,18.45
2023-06-24T06:04:09.556Z,19.63
2023-06-24T06:06:37.426Z,27.90
2023-06-24T06:09:03.990Z,23.42
2023-06-24T06:11:30.417Z,25.45
2023-06-24T06:13:57.071Z,23.52
2023-06-24T06:16:23.627Z,22.58
2023-06-24T06:18:50.018Z,21.17
2023-06-24T06:21:16.445Z,26.83
2023-06-24T06:23:44.233Z,21.63
2023-06-24T06:26:10.718Z,19.65
2023-06-24T06:28:37.198Z,22.27
2023-06-24T06:31:03.622Z,26.80
2023-06-24T06:33:30.068Z,19.15
2023-06-24T06:35:56.476Z,26.58
2023-06-24T06:38:22.879Z,21.88
2023-06-24T06:40:50.689Z,28.55
2023-06-24T06:43:17.130Z,22.65
2023-06-24T06:45:43.697Z,20.77
2023-06-24T06:48:10.142Z,27.10
2023-06-24T06:50:36.552Z,21.98
2023-06-24T06:53:03.095Z,23.42
2023-06-24T06:55:29.658Z,24.20
2023-06-24T06:58:04.715Z,20.95
2023-06-24T07:00:38.396Z,28.65
2023-06-24T07:06:13.803Z,30.38
2023-06-24T07:11:54.122Z,24.60
2023-06-24T07:14:22.160Z,25.50
2023-06-24T07:16:48.639Z,25.98
2023-06-24T07:19:15.094Z,21.05
2023-06-24T07:21:41.550Z,24.00
2023-06-24T07:24:08.084Z,18.55
2023-06-24T07:26:34.613Z,20.42
2023-06-24T07:29:08.366Z,26.63
2023-06-24T07:31:37.764Z,26.25
2023-06-24T07:34:04.682Z,19.77
2023-06-24T07:36:31.658Z,24.25
2023-06-24T07:38:58.191Z,18.63
2023-06-24T07:41:24.871Z,19.75
2023-06-24T07:43:51.341Z,21.17
2023-06-24T07:46:18.294Z,24.35
2023-06-24T07:48:46.134Z,20.23
2023-06-24T07:51:12.591Z,24.30
2023-06-24T07:53:39.106Z,24.33
2023-06-24T07:56:05.773Z,27.02
2023-06-24T07:58:32.205Z,25.48
2023-06-24T08:00:58.931Z,18.42
2023-06-24T08:03:25.469Z,28.77
2023-06-24T08:05:53.510Z,28.25
2023-06-24T08:08:19.977Z,23.27
2023-06-24T08:10:46.478Z,22.00
2023-06-24T08:13:13.079Z,23.50
2023-06-24T08:15:42.167Z,19.13
2023-06-24T08:18:09.022Z,16.63
2023-06-24T08:20:35.585Z,21.80
2023-06-24T08:23:03.502Z,19.75
2023-06-24T08:25:30.372Z,21.42
2023-06-24T08:27:57.000Z,26.17
2023-06-24T08:30:23.522Z,25.27
2023-06-24T08:32:50.162Z,22.30
2023-06-24T08:35:16.640Z,13.32
2023-06-24T08:37:43.128Z,20.17
2023-06-24T08:40:11.609Z,26.17
2023-06-24T08:42:38.112Z,16.95
2023-06-24T08:45:06.473Z,19.52
2023-06-24T08:47:34.132Z,15.73
2023-06-24T08:50:03.147Z,23.63
2023-06-24T08:52:33.695Z,14.77
2023-06-24T08:55:04.904Z,14.27
2023-06-24T08:57:35.908Z,22.85
2023-06-24T09:00:09.088Z,17.13
2023-06-24T09:02:38.775Z,19.23
2023-06-24T09:07:57.185Z,20.00
2023-06-24T09:10:39.367Z,21.15
2023-06-24T09:16:13.014Z,17.67
2023-06-24T09:18:39.725Z,19.27
2023-06-24T09:21:07.164Z,20.83
2023-06-24T09:23:39.541Z,17.70
2023-06-24T09:26:12.707Z,21.80
2023-06-24T09:28:47.469Z,24.75
2023-06-24T09:31:19.916Z,18.50
2023-06-24T09:33:50.064Z,20.02
2023-06-24T09:36:29.456Z,14.32
2023-06-24T09:38:58.655Z,26.83
2023-06-24T09:41:31.157Z,21.98
2023-06-24T09:44:05.026Z,18.35
2023-06-24T09:46:32.752Z,23.52
2023-06-24T09:49:01.064Z,27.92
2023-06-24T09:51:28.081Z,22.43
2023-06-24T09:53:55.364Z,17.38
2023-06-24T09:56:23.119Z,27.55
2023-06-24T09:58:52.747Z,23.98
2023-06-24T10:01:25.098Z,20.20
2023-06-24T10:03:52.155Z,21.92
2023-06-24T10:06:19.125Z,30.08
2023-06-24T10:08:48.247Z,19.48
2023-06-24T10:13:41.049Z,19.65
2023-06-24T10:16:10.924Z,21.80
2023-06-24T10:18:42.743Z,27.55
2023-06-24T10:21:12.017Z,17.77
2023-06-24T10:23:44.507Z,27.83
2023-06-24T10:26:15.733Z,17.27
2023-06-24T10:29:00.849Z,19.35
2023-06-24T10:31:46.360Z,21.63
2023-06-24T10:34:26.166Z,19.98
2023-06-24T10:36:56.661Z,28.23
2023-06-24T10:39:39.420Z,17.92
2023-06-24T10:42:31.277Z,17.50
2023-06-24T10:44:58.331Z,15.63
2023-06-24T10:47:25.740Z,19.73
2023-06-24T10:50:05.131Z,16.52
2023-06-24T10:55:19.864Z,20.58
2023-06-24T10:57:52.016Z,25.33
2023-06-24T11:00:19.937Z,19.90
2023-06-24T11:02:51.923Z,20.02
2023-06-24T11:05:26.511Z,17.20
2023-06-24T11:07:52.962Z,19.55
2023-06-24T11:10:19.389Z,15.85
2023-06-24T11:12:45.801Z,15.10
2023-06-24T11:15:12.895Z,14.73
2023-06-24T11:17:39.737Z,14.90
2023-06-24T11:20:08.057Z,15.25
2023-06-24T11:22:35.871Z,15.97
2023-06-24T11:25:02.316Z,17.80
2023-06-24T11:27:29.490Z,25.25
2023-06-24T11:29:56.338Z,14.30
2023-06-24T11:32:23.276Z,13.88
2023-06-24T11:34:49.966Z,17.55
2023-06-24T11:37:18.214Z,15.32
2023-06-24T11:39:46.312Z,13.93
2023-06-24T11:42:12.902Z,18.40
2023-06-24T11:44:42.599Z,14.88
2023-06-24T11:47:09.625Z,12.13
2023-06-24T11:49:48.872Z,13.18
2023-06-24T11:52:15.365Z,16.30
2023-06-24T11:54:42.237Z,12.93
2023-06-24T11:57:17.796Z,12.25
2023-06-24T11:59:46.287Z,15.38
2023-06-24T12:02:14.575Z,16.13
2023-06-24T12:04:45.261Z,15.03
2023-06-24T12:07:12.226Z,17.90
2023-06-24T12:09:38.707Z,14.57
2023-06-24T12:12:05.845Z,15.48
2023-06-24T12:14:34.173Z,13.40
2023-06-24T12:17:00.856Z,20.48
2023-06-24T12:19:27.456Z,15.15
2023-06-24T12:21:54.077Z,19.70
2023-06-24T12:24:20.617Z,14.52
2023-06-24T12:26:47.519Z,17.42
2023-06-24T12:29:18.364Z,13.98
2023-06-24T12:31:46.847Z,8.93
2023-06-24T12:34:15.013Z,11.30
2023-06-24T12:36:41.710Z,13.87
2023-06-24T12:39:08.448Z,10.07
2023-06-24T12:41:36.207Z,7.47
2023-06-24T12:44:02.699Z,5.78
2023-06-24T12:46:29.126Z,6.60
2023-06-24T12:48:56.939Z,7.43
2023-06-24T12:51:23.404Z,8.57
2023-06-24T12:53:49.857Z,10.73
2023-06-24T12:56:16.322Z,9.82
2023-06-24T12:58:42.805Z,9.82
2023-06-24T13:01:09.417Z,7.68
2023-06-24T13:03:36.015Z,9.80
2023-06-24T13:06:03.942Z,12.82
2023-06-24T13:08:30.390Z,9.63
2023-06-24T13:10:57.433Z,13.00
2023-06-24T13:13:23.945Z,20.48
2023-06-24T13:15:50.367Z,11.80
2023-06-24T13:18:16.828Z,10.20
2023-06-24T13:20:43.384Z,10.70
2023-06-24T13:23:11.159Z,5.50
2023-06-24T13:25:37.878Z,6.47
2023-06-24T13:28:04.494Z,10.02
2023-06-24T13:30:30.977Z,7.45
2023-06-24T13:32:57.501Z,6.03
2023-06-24T13:35:24.133Z,7.72
2023-06-24T13:37:50.630Z,8.57
2023-06-24T13:40:18.605Z,7.82
2023-06-24T13:42:45.090Z,8.68
2023-06-24T13:45:12.957Z,9.95
2023-06-24T13:47:39.564Z,6.93
2023-06-24T13:50:06.726Z,8.30
2023-06-24T13:53:21.252Z,7.68
2023-06-24T13:55:24.404Z,9.48
2023-06-24T13:57:50.939Z,9.38
2023-06-24T14:00:17.821Z,17.60
2023-06-24T14:02:44.535Z,8.63
2023-06-24T14:05:28.583Z,12.45
2023-06-24T14:08:22.928Z,15.60
2023-06-24T14:10:54.900Z,15.05
2023-06-24T14:13:21.369Z,9.43
2023-06-24T14:15:49.490Z,10.40
2023-06-24T14:18:16.122Z,7.18
2023-06-24T14:20:42.705Z,11.82
2023-06-24T14:23:09.235Z,10.20
2023-06-24T14:25:36.099Z,8.18
2023-06-24T14:28:04.199Z,9.38
2023-06-24T14:30:30.899Z,8.52
2023-06-24T14:32:59.336Z,13.25
2023-06-24T14:35:26.194Z,10.00
2023-06-24T14:37:52.812Z,7.40
2023-06-24T14:40:19.342Z,15.10
2023-06-24T14:42:46.082Z,8.73
2023-06-24T14:45:14.170Z,8.27
2023-06-24T14:47:42.902Z,9.10
2023-06-24T14:50:09.863Z,12.90
2023-06-24T14:52:36.610Z,6.88
2023-06-24T14:55:09.175Z,9.57
2023-06-24T14:57:36.326Z,10.85
2023-06-24T15:00:03.060Z,8.43
2023-06-24T15:02:31.094Z,5.07
2023-06-24T15:04:57.632Z,9.95
2023-06-24T15:07:24.215Z,8.45
2023-06-24T15:09:50.937Z,6.82
2023-06-24T15:12:17.934Z,8.13
2023-06-24T15:14:44.463Z,7.65
2023-06-24T15:17:10.968Z,12.00
2023-06-24T15:19:43.150Z,8.32
2023-06-24T15:22:11.052Z,9.65
2023-06-24T15:24:38.469Z,8.75
2023-06-24T15:27:05.242Z,8.55
2023-06-24T15:29:34.262Z,7.40
2023-06-24T15:32:01.889Z,4.95
2023-06-24T15:34:34.498Z,10.98
2023-06-24T15:37:02.428Z,6.97
2023-06-24T15:39:28.926Z,6.28
2023-06-24T15:41:55.516Z,7.22
2023-06-24T15:44:23.117Z,8.02
2023-06-24T15:46:49.686Z,5.18
2023-06-24T15:49:16.685Z,6.47
2023-06-24T15:51:43.278Z,3.97
2023-06-24T15:54:11.246Z,3.80
2023-06-24T15:56:37.827Z,5.90
2023-06-24T15:59:06.518Z,3.95
2023-06-24T16:01:33.993Z,3.55
2023-06-24T16:04:12.357Z,4.63
2023-06-24T16:06:45.783Z,6.60
2023-06-24T16:09:14.513Z,5.18
2023-06-24T16:11:41.210Z,3.00
2023-06-24T16:14:08.439Z,3.88
2023-06-24T16:16:35.075Z,6.63
2023-06-24T16:19:01.700Z,4.07
2023-06-24T16:21:28.665Z,4.60
2023-06-24T16:23:55.302Z,6.75
2023-06-24T16:26:26.052Z,4.10
2023-06-24T16:28:54.499Z,2.50
2023-06-24T16:31:21.362Z,5.72
2023-06-24T16:33:47.932Z,3.53
2023-06-24T16:36:20.311Z,4.35
2023-06-24T16:38:49.632Z,13.32
2023-06-24T16:41:16.145Z,8.80
2023-06-24T16:43:46.266Z,7.78
2023-06-24T16:46:12.835Z,4.53
2023-06-24T16:48:39.356Z,2.92
2023-06-24T16:51:07.247Z,2.28
2023-06-24T16:53:33.832Z,5.40
2023-06-24T16:56:00.302Z,10.40
2023-06-24T16:58:26.922Z,2.38
2023-06-24T17:00:55.349Z,2.63
2023-06-24T17:03:22.154Z,4.75
2023-06-24T17:05:48.738Z,2.15
2023-06-24T17:08:15.249Z,3.55
2023-06-24T17:10:41.782Z,6.95
2023-06-24T17:13:14.364Z,3.90
2023-06-24T17:15:44.185Z,5.38
2023-06-24T17:18:12.226Z,4.47
2023-06-24T17:20:52.681Z,7.60
2023-06-24T17:23:19.570Z,1.52
2023-06-24T17:25:50.273Z,12.80
2023-06-24T17:28:17.192Z,2.38
2023-06-24T17:30:54.462Z,4.82
2023-06-24T17:33:30.893Z,2.22
2023-06-24T17:36:03.413Z,2.72
2023-06-24T17:38:30.691Z,3.03
2023-06-24T17:40:57.689Z,3.35
2023-06-24T17:43:43.719Z,1.33
2023-06-24T17:46:25.985Z,2.05
2023-06-24T17:51:58.286Z,1.52
2023-06-24T17:54:29.383Z,4.93
2023-06-24T17:57:15.271Z,3.20
2023-06-24T17:59:43.721Z,4.70
2023-06-24T18:20:44.289Z,1.80
2023-06-24T18:39:50.299Z,4.82
2023-06-24T18:42:27.098Z,4.18
2023-06-24T18:45:17.129Z,7.80
2023-06-24T18:47:49.319Z,9.43
2023-06-24T18:50:33.896Z,4.20
2023-06-24T18:53:10.245Z,2.70
2023-06-24T18:55:46.768Z,4.25
2023-06-24T18:58:14.543Z,2.75
2023-06-24T19:00:43.050Z,4.25
2023-06-24T19:03:09.917Z,6.78
2023-06-24T19:05:36.482Z,5.30
2023-06-24T19:08:03.113Z,4.88
2023-06-24T19:10:29.738Z,6.38
2023-06-24T19:12:57.570Z,3.58
2023-06-24T19:15:24.190Z,3.53
2023-06-24T19:17:50.701Z,5.05
2023-06-24T19:20:17.247Z,4.82
2023-06-24T19:22:43.939Z,4.72
2023-06-24T19:25:11.025Z,6.38
2023-06-24T19:27:38.610Z,6.63
2023-06-24T19:30:07.481Z,6.38
2023-06-24T19:32:34.640Z,5.25
2023-06-24T19:35:01.300Z,7.15
2023-06-24T19:37:27.807Z,6.28
2023-06-24T19:39:54.295Z,5.10
2023-06-24T19:42:20.730Z,5.90
2023-06-24T19:44:47.167Z,6.78
2023-06-24T19:47:16.554Z,8.50
2023-06-24T19:49:49.650Z,8.20
2023-06-24T19:52:16.113Z,9.98
2023-06-24T19:54:42.790Z,8.02
2023-06-24T19:57:11.989Z,7.07
2023-06-24T20:04:35.528Z,5.63
2023-06-24T20:07:02.385Z,7.45
2023-06-24T20:09:28.860Z,8.60
2023-06-24T20:11:55.399Z,5.80
2023-06-24T20:14:21.932Z,11.00
2023-06-24T20:16:48.321Z,8.48
2023-06-24T20:19:14.708Z,6.60
2023-06-24T20:21:42.458Z,6.47
2023-06-24T20:24:08.890Z,16.02
2023-06-24T20:26:35.321Z,9.05
2023-06-24T20:29:01.765Z,10.02
2023-06-24T20:31:28.192Z,9.52
2023-06-24T20:33:54.642Z,5.90
2023-06-24T20:36:21.055Z,8.40
2023-06-24T20:38:48.881Z,8.80
2023-06-24T20:41:20.655Z,7.72
2023-06-24T20:43:47.024Z,10.55
2023-06-24T20:46:13.546Z,7.72
2023-06-24T20:48:40.085Z,14.82
2023-06-24T20:51:06.531Z,7.72
2023-06-24T20:53:33.017Z,10.10
2023-06-24T20:56:00.822Z,8.88
2023-06-24T20:58:27.391Z,7.20
2023-06-24T21:00:53.942Z,8.73
2023-06-24T21:03:20.551Z,9.05
2023-06-24T21:05:47.039Z,8.68
2023-06-24T21:08:13.824Z,11.05
2023-06-24T21:10:40.213Z,18.70
2023-06-24T21:13:07.973Z,9.80
2023-06-24T21:15:34.378Z,13.18
2023-06-24T21:18:00.815Z,9.65
2023-06-24T21:20:27.376Z,16.10
2023-06-24T21:22:54.182Z,10.10
2023-06-24T21:25:20.913Z,10.48
2023-06-24T21:27:48.055Z,9.80
2023-06-24T21:30:16.055Z,11.73
2023-06-24T21:32:42.483Z,8.07
2023-06-24T21:35:09.579Z,12.25
2023-06-24T21:37:36.082Z,9.18
2023-06-24T21:40:02.783Z,10.85
2023-06-24T21:42:29.226Z,11.18
2023-06-24T21:44:56.023Z,13.35
2023-06-24T21:47:24.371Z,15.05
2023-06-24T21:49:50.816Z,11.37
2023-06-24T21:52:17.356Z,12.45
2023-06-24T21:54:44.090Z,13.43
2023-06-24T21:57:11.145Z,15.57
2023-06-24T21:59:37.726Z,17.15
2023-06-24T22:02:05.551Z,10.27
2023-06-24T22:04:33.466Z,9.98
2023-06-24T22:07:00.175Z,13.63
2023-06-24T22:09:27.179Z,13.38
2023-06-24T22:11:53.822Z,10.20
2023-06-24T22:14:20.360Z,13.63
2023-06-24T22:16:46.886Z,11.68
2023-06-24T22:19:13.342Z,13.90
2023-06-24T22:21:41.196Z,12.75
2023-06-24T22:24:08.146Z,19.77
2023-06-24T22:26:34.707Z,12.90
2023-06-24T22:29:02.681Z,10.23
2023-06-24T22:31:29.143Z,12.65
2023-06-24T22:33:55.529Z,13.43
2023-06-24T22:36:22.026Z,13.00
2023-06-24T22:38:49.793Z,11.20
2023-06-24T22:41:16.421Z,14.60
2023-06-24T22:43:42.870Z,15.30
2023-06-24T22:46:09.332Z,10.80
2023-06-24T22:48:35.786Z,14.25
2023-06-24T22:51:02.248Z,21.52
2023-06-24T22:53:28.687Z,15.73
2023-06-24T22:55:56.673Z,14.55
2023-06-24T22:58:23.146Z,13.65
2023-06-24T23:00:49.581Z,14.32
2023-06-24T23:03:16.685Z,10.90
2023-06-24T23:05:43.474Z,10.93
2023-06-24T23:08:10.607Z,10.88
2023-06-24T23:10:37.667Z,16.95
2023-06-24T23:13:05.897Z,15.93
2023-06-24T23:15:32.645Z,13.20
2023-06-24T23:17:59.130Z,14.95
2023-06-24T23:20:25.715Z,9.90
2023-06-24T23:22:52.346Z,12.93
2023-06-24T23:25:19.117Z,16.48
2023-06-24T23:27:46.078Z,11.38
2023-06-24T23:30:14.411Z,15.52
2023-06-24T23:32:41.149Z,12.05
2023-06-24T23:35:08.766Z,11.25
2023-06-24T23:37:35.414Z,16.10
2023-06-24T23:40:01.988Z,17.13
2023-06-24T23:42:28.615Z,10.77
2023-06-24T23:44:55.322Z,11.95
2023-06-24T23:47:23.143Z,17.70
2023-06-24T23:49:49.757Z,15.98
2023-06-24T23:52:16.261Z,15.43
2023-06-24T23:54:42.744Z,11.80
2023-06-24T23:57:09.187Z,14.45
2023-06-24T23:59:35.649Z,15.65
